Central Oregon RPC :: LAKEVIEW, OR A

liberation: 2020-05-31  07:30     latitude: 42.184008     longitude: -120.572669 70 birds
# LOFT PRING MILES ARRIVAL SPEED ToWin
1 RUETER FAMILY LOFT AU19-CORP-5296 179.062 2020-05-31 10:55:41.728 1532.118 00:00:00
2 ROCKY TOP AU18-CORP-3386 144.546 2020-05-31 10:16:11.440 1530.782 00:00:09
3 ROCKY TOP AU18-CORP-3362 144.546 2020-05-31 10:16:13.338 1530.490 00:00:11
4 RUETER FAMILY LOFT AU19-CORP-5250 179.062 2020-05-31 10:55:54.896 1530.485 00:00:13
5 RUETER FAMILY LOFT AU19-CORP-5258 179.062 2020-05-31 10:56:02.156 1529.586 00:00:20
6 STEELE LOFT AU19-CORP-4045 151.458 2020-05-31 10:24:22.853 1528.641 00:00:24
7 STEELE LOFT AU19-CORP-4022 151.458 2020-05-31 10:24:23.257 1528.582 00:00:24
8 STEELE LOFT AU18-CORP-4093 151.458 2020-05-31 10:24:23.829 1528.498 00:00:25
9 STEELE LOFT AU19-CORP-4007 151.458 2020-05-31 10:24:30.088 1527.584 00:00:31
10 ROCKY TOP AU18-CORP-3334 144.546 2020-05-31 10:16:36.075 1527.009 00:00:33
11 STEELE LOFT AU19-CORP-4008 151.458 2020-05-31 10:24:39.430 1526.223 00:00:40
12 ROCKY TOP AU19-JEDD-0504 144.546 2020-05-31 10:16:42.499 1526.028 00:00:40
13 STEELE LOFT AU19-CORP-4006 151.458 2020-05-31 10:24:43.114 1525.686 00:00:44
14 TOPIGEONUSA AU19-CORP-5140 151.225 2020-05-31 10:26:50.491 1505.051 00:03:07
15 STEELE LOFT AU19-CORP-4039 151.458 2020-05-31 10:28:01.338 1497.373 00:04:02
16 TOPIGEONUSA AU18-CORP-4205 151.225 2020-05-31 10:27:55.278 1495.917 00:04:12
17 STEELE LOFT AU19-CORP-4009 151.458 2020-05-31 10:28:25.744 1493.959 00:04:27
18 STEELE LOFT AU19-CORP-4004 151.458 2020-05-31 10:28:33.122 1492.930 00:04:34
19 STEELE LOFT AU19-CORP-4024 151.458 2020-05-31 10:28:37.602 1492.306 00:04:38
20 TOPIGEONUSA AU19-CORP-4938 151.225 2020-05-31 10:29:38.820 1481.547 00:05:56
21 RUETER FAMILY LOFT AU19-CORP-5293 179.062 2020-05-31 11:03:22.105 1477.022 00:07:40
22 ROCKY TOP AU14-CORP-1542 144.546 2020-05-31 10:22:30.975 1474.653 00:06:28
23 ROCKY TOP AU18-CORP-3385 144.546 2020-05-31 10:22:33.577 1474.282 00:06:31
24 ROCKY TOP AU19-ARPU-29027 144.546 2020-05-31 10:22:50.098 1471.934 00:06:47
25 ROCKY TOP AU19-CORP-4421 144.546 2020-05-31 10:22:51.982 1471.666 00:06:49
26 ROCKY TOP AU19-ARPU-29022 144.546 2020-05-31 10:23:21.105 1467.546 00:07:18
27 RUETER FAMILY LOFT AU19-CORP-5286 179.062 2020-05-31 11:05:52.977 1459.818 00:10:11
28 TOPIGEONUSA AU19-CORP-4956 151.225 2020-05-31 10:32:27.226 1458.756 00:08:44
29 TOPIGEONUSA AU18-CORP-4272 151.225 2020-05-31 10:32:27.341 1458.740 00:08:44
30 ROCKY TOP AU18-CORP-3337 144.546 2020-05-31 10:25:25.259 1450.235 00:09:23
31 TOPIGEONUSA AU19-CORP-4908 151.225 2020-05-31 10:33:38.693 1449.294 00:09:56
32 TIM GRAVES AU15-CORP-3096 143.361 2020-05-31 10:24:13.308 1448.246 00:09:32
33 TIM GRAVES AU15-AA-14510 143.361 2020-05-31 10:24:17.407 1447.678 00:09:36
34 TIM GRAVES AU17-CORP-0812 143.361 2020-05-31 10:24:18.675 1447.503 00:09:38
35 RUETER FAMILY LOFT AU19-CORP-5261 179.062 2020-05-31 11:08:59.217 1439.126 00:13:17
36 HENDRICKSON FAMILY LOFT AU18-CORP-4005 149.32 2020-05-31 10:32:52.730 1437.036 00:11:21
37 RUETER FAMILY LOFT AU19-CORP-5291 179.062 2020-05-31 11:09:20.603 1436.787 00:13:39
38 RUETER FAMILY LOFT AU19-CORP-5488 179.062 2020-05-31 11:10:08.095 1431.621 00:14:26
39 AMERICAN LOFT AU19-CORP-4746 149.238 2020-05-31 10:35:20.461 1417.167 00:13:54
40 TIM GRAVES AU15-CORP-3070 143.361 2020-05-31 10:28:18.734 1415.023 00:13:38
41 HENDRICKSON FAMILY LOFT AU19-CORP-4364 149.32 2020-05-31 10:35:50.625 1414.110 00:14:19
42 HENDRICKSON FAMILY LOFT AU19-CORP-4359 149.32 2020-05-31 10:35:53.910 1413.693 00:14:22
43 AMERICAN LOFT AU19-CORP-4635 149.238 2020-05-31 10:36:13.929 1410.386 00:14:48
44 AMERICAN LOFT AU19-CORP-4714 149.238 2020-05-31 10:36:15.365 1410.205 00:14:49
45 HENDRICKSON FAMILY LOFT AU18-CORP-4028 149.32 2020-05-31 10:36:32.790 1408.783 00:15:01
46 STEELE LOFT AU17-CAPT-0094 151.458 2020-05-31 10:40:10.364 1401.703 00:16:11
47 TOPIGEONUSA AU19-CORP-4912 151.225 2020-05-31 10:40:34.663 1396.572 00:16:52
48 AMERICAN LOFT AU19-CORP-4650 149.238 2020-05-31 10:38:08.746 1396.041 00:16:43
49 AMERICAN LOFT AU19-CORP-4713 149.238 2020-05-31 10:38:12.712 1395.551 00:16:47
50 HENDRICKSON FAMILY LOFT AU19-ARPU-29020 149.32 2020-05-31 10:38:29.067 1394.298 00:16:57
51 HENDRICKSON FAMILY LOFT AU19-ARPU-29019 149.32 2020-05-31 10:38:35.574 1393.496 00:17:04
52 ROCKY TOP AU18-CORP-3350 144.546 2020-05-31 10:34:16.459 1380.559 00:18:14
53 TIM GRAVES AU19-CORP-4232 143.361 2020-05-31 10:33:31.672 1374.810 00:18:51
54 TIM GRAVES AU17-FOYS-3050 143.361 2020-05-31 10:33:36.012 1374.268 00:18:55
55 TIM GRAVES AU19-CORP-4239 143.361 2020-05-31 10:35:40.344 1358.931 00:20:59
56 TIM GRAVES AU19-CORP-4203 143.361 2020-05-31 10:35:54.710 1357.181 00:21:14
57 ROCKY TOP AU18-CORP-3311 144.546 2020-05-31 10:38:27.043 1349.964 00:22:24
58 HENDRICKSON FAMILY LOFT AU19-ARPU-29030 149.32 2020-05-31 10:44:42.324 1349.749 00:23:11
59 TIM GRAVES AU17-SWWR-7335 143.361 2020-05-31 10:37:11.465 1347.906 00:22:30
60 TIM GRAVES AU14-CORP-0072 143.361 2020-05-31 10:38:08.586 1341.085 00:23:28
61 RUETER FAMILY LOFT AU19-CORP-5265 179.062 2020-05-31 11:25:19.393 1339.221 00:29:38
62 RUETER FAMILY LOFT AU19-CORP-5290 179.062 2020-05-31 11:25:20.749 1339.092 00:29:39
63 AMERICAN LOFT AU19-CORP-4769 149.238 2020-05-31 10:46:51.514 1334.253 00:25:25
64 RUETER FAMILY LOFT AU19-CORP-5259 179.062 2020-05-31 11:53:07.581 1197.713 00:57:26
65 TIM GRAVES AU14-TAR-0426 143.361 2020-05-31 11:00:49.457 1196.807 00:46:08
66 TIM GRAVES AU16-FHI-0243 143.361 2020-05-31 11:11:50.489 1137.371 00:57:09
67 HENDRICKSON FAMILY LOFT AU18-CORP-4007 149.32 2020-05-31 12:20:34.926 904.403 01:59:03
68 RUETER FAMILY LOFT AU19-CORP-5295 179.062 2020-05-31 16:38:13.759 574.850 05:42:32
HENDRICKSON FAMILY LOFT AU18-CORP-4008 0 0000-00-00 00:00:00.000 0.000 00:00:00
STEELE LOFT AU19-CORP-4002 0 0000-00-00 00:00:00.000 0.000 00:00:00